Time;durP1;ratioP1;P1;durP2;ratioP2;P2;SDS_P1;SDS_P2;PMS_P1;PMS_P2;Temp;Humidity;BMP_temperature;BMP_pressure;BME280_temperature;BME280_humidity;BME280_pressure;Samples;Min_cycle;Max_cycle;Signal;HPM_P1;HPM_P2
2022/10/09 00:14:41;;;;;;;5.85;3.15;;;;;;;8.70;76.97;100918.59;30978524;28;111979;-62
2022/10/09 00:29:41;;;;;;;6.28;3.33;;;;;;;8.55;77.65;100925.31;30977143;28;116758;-62
2022/10/09 00:44:59;;;;;;;5.80;3.65;;;;;;;8.41;77.49;100932.66;30975313;28;115614;-62
2022/10/09 01:00:01;;;;;;;4.60;2.60;;;;;;;8.27;78.03;100935.72;30975142;28;96664;-62
2022/10/09 01:15:15;;;;;;;5.93;3.27;;;;;;;8.17;77.89;100948.13;30974113;28;96741;-62
2022/10/09 01:30:15;;;;;;;;;;;;;;;8.08;78.61;100965.72;30981086;28;96713;-62
2022/10/09 01:45:16;;;;;;;5.40;2.17;;;;;;;7.97;78.73;100971.94;30994991;28;97015;-62
2022/10/09 02:00:17;;;;;;;8.13;2.40;;;;;;;7.84;78.90;100974.81;30992519;28;97256;-62
2022/10/09 02:15:19;;;;;;;6.13;2.23;;;;;;;7.71;78.92;100998.94;30990748;28;96633;-62
2022/10/09 02:30:20;;;;;;;5.13;2.13;;;;;;;7.53;78.94;101003.13;30989481;28;97635;-62
2022/10/09 02:45:21;;;;;;;5.45;2.47;;;;;;;7.38;79.23;101026.47;30986561;28;97285;-62
2022/10/09 03:00:21;;;;;;;7.43;2.38;;;;;;;7.25;78.77;101053.19;30986378;28;96698;-62
2022/10/09 03:15:21;;;;;;;6.68;2.47;;;;;;;7.09;79.26;101053.59;30984039;28;115916;-62
2022/10/09 03:30:22;;;;;;;6.00;2.83;;;;;;;6.97;79.84;101068.72;30983894;28;96728;-62
2022/10/09 03:45:22;;;;;;;9.60;2.00;;;;;;;6.91;79.35;101087.72;30980979;28;96749;-62
2022/10/09 04:00:23;;;;;;;4.38;2.50;;;;;;;6.73;79.59;101098.84;30979792;28;96764;-62
2022/10/09 04:15:23;;;;;;;5.03;2.67;;;;;;;6.57;79.73;101109.81;30978685;28;97529;-62
2022/10/09 04:30:23;;;;;;;6.25;2.22;;;;;;;6.59;80.37;101115.00;30977084;28;97332;-62
2022/10/09 04:45:24;;;;;;;3.22;1.98;;;;;;;6.64;80.12;101115.47;30974569;28;115133;-62
2022/10/09 05:00:24;;;;;;;3.65;1.90;;;;;;;6.68;80.67;101121.38;30977179;28;96653;-62
2022/10/09 05:15:25;;;;;;;6.43;2.50;;;;;;;6.70;80.82;101160.00;30995191;28;96705;-62
2022/10/09 05:30:25;;;;;;;5.13;2.15;;;;;;;6.84;80.33;101161.56;30993237;28;97672;-62
2022/10/09 05:45:26;;;;;;;6.07;2.33;;;;;;;7.29;80.45;101176.53;30990670;28;96882;-61
2022/10/09 06:00:26;;;;;;;5.80;2.65;;;;;;;7.97;80.82;101186.88;30990206;28;108631;-62
2022/10/09 06:15:27;;;;;;;6.55;2.58;;;;;;;8.93;79.74;101199.97;30947886;28;97501;-62
2022/10/09 06:30:27;;;;;;;3.63;2.00;;;;;;;10.11;79.26;101222.22;30942636;28;108966;-61
2022/10/09 06:45:28;;;;;;;4.90;1.90;;;;;;;11.12;77.46;101232.34;30854775;28;97515;-61
2022/10/09 07:00:28;;;;;;;6.17;1.90;;;;;;;12.24;75.96;101249.00;30947772;28;97091;-65
2022/10/09 07:15:29;;;;;;;5.05;1.65;;;;;;;13.26;73.55;101267.94;30917715;28;96695;-59
2022/10/09 07:30:29;;;;;;;4.68;2.22;;;;;;;14.73;70.66;101274.47;30859145;28;96729;-61
2022/10/09 07:45:29;;;;;;;7.07;1.67;;;;;;;16.04;68.15;101291.00;30855791;28;113618;-61
2022/10/09 08:00:30;;;;;;;3.80;1.70;;;;;;;17.62;63.82;101305.38;30857119;28;104734;-64
2022/10/09 08:15:30;;;;;;;8.68;2.20;;;;;;;19.24;59.88;101300.28;30859091;28;96815;-60
2022/10/09 08:30:30;;;;;;;4.57;1.40;;;;;;;20.23;55.31;101309.75;30847194;28;97384;-60
2022/10/09 08:45:33;;;;;;;4.77;1.20;;;;;;;31.76;38.80;101315.97;30843054;28;97930;-59
2022/10/09 09:00:43;;;;;;;5.77;1.93;;;;;;;37.82;23.39;101321.16;30851745;28;96790;-61
2022/10/09 09:15:53;;;;;;;4.53;1.07;;;;;;;42.39;17.24;101320.91;30849418;28;96755;-61
2022/10/09 09:30:59;;;;;;;7.43;1.33;;;;;;;33.11;21.77;101313.59;30849940;28;96762;-61
2022/10/09 09:46:00;;;;;;;6.50;1.13;;;;;;;39.38;15.87;101314.50;30848226;28;96738;-61
2022/10/09 10:01:02;;;;;;;3.97;1.20;;;;;;;40.94;14.82;101302.84;30868440;28;97241;-61
2022/10/09 10:16:05;;;;;;;6.20;1.03;;;;;;;46.50;11.53;101298.84;30867763;28;97210;-61
2022/10/09 10:31:14;;;;;;;3.40;0.97;;;;;;;47.55;10.15;101294.59;30864482;28;97652;-62
2022/10/09 10:46:37;;;;;;;3.77;1.13;;;;;;;51.18;8.36;101296.03;30862379;28;97301;-62
2022/10/09 11:01:45;;;;;;;5.30;1.20;;;;;;;43.62;11.55;101288.06;30862872;28;97418;-61
2022/10/09 11:17:06;;;;;;;4.20;0.90;;;;;;;36.65;15.42;101281.91;30860778;28;101404;-61
2022/10/09 11:32:18;;;;;;;4.30;0.90;;;;;;;31.43;19.16;101269.63;30854640;28;96875;-61
2022/10/09 11:47:18;;;;;;;2.63;0.80;;;;;;;39.94;12.93;101261.19;30857223;28;96841;-60
2022/10/09 12:02:27;;;;;;;3.53;1.00;;;;;;;42.37;12.19;101248.47;30856295;28;97473;-61
2022/10/09 12:17:37;;;;;;;3.40;0.70;;;;;;;31.48;18.36;101225.53;30852701;28;96845;-61
2022/10/09 12:32:57;;;;;;;2.73;0.60;;;;;;;41.40;10.74;101210.38;30853254;28;96808;-62
2022/10/09 12:48:07;;;;;;;5.20;2.60;;;;;;;44.89;9.34;101196.31;30852747;28;97014;-61
2022/10/09 13:03:39;;;;;;;3.00;0.90;;;;;;;46.59;7.81;101189.41;30851822;28;97683;-62
2022/10/09 13:18:40;;;;;;;3.50;1.00;;;;;;;46.03;8.16;101178.19;30830978;28;96849;-59
2022/10/09 13:33:40;;;;;;;2.08;0.50;;;;;;;41.59;10.16;101166.94;30867128;28;96811;-61
2022/10/09 13:48:41;;;;;;;2.63;0.60;;;;;;;41.00;10.38;101157.31;30868050;28;97372;-61
2022/10/09 14:03:41;;;;;;;3.38;0.77;;;;;;;38.41;11.70;101153.59;30868742;28;97271;-61
2022/10/09 14:18:42;;;;;;;;;;;;;;;38.54;12.01;101148.94;30864951;28;121906;-61
2022/10/09 14:33:46;;;;;;;4.28;1.05;;;;;;;39.31;12.01;101125.53;30864559;28;97200;-61
2022/10/09 14:48:47;;;;;;;2.43;0.80;;;;;;;36.53;14.10;101108.53;30862305;28;96864;-61
2022/10/09 15:03:48;;;;;;;3.13;0.90;;;;;;;33.90;15.45;101101.09;30861269;28;96685;-61
2022/10/09 15:18:50;;;;;;;3.53;1.55;;;;;;;26.90;20.98;101098.41;30859162;28;96755;-61
2022/10/09 15:33:52;;;;;;;6.53;1.03;;;;;;;22.44;25.58;101088.22;30858275;28;97427;-61
2022/10/09 15:48:53;;;;;;;2.60;1.07;;;;;;;20.02;28.49;101082.75;30857305;28;97579;-61
2022/10/09 16:03:53;;;;;;;6.10;1.73;;;;;;;17.12;33.59;101080.88;30856474;28;96763;-61
2022/10/09 16:18:55;;;;;;;18.17;8.95;;;;;;;15.18;37.93;101090.47;30854498;28;97260;-61
2022/10/09 16:33:56;;;;;;;12.53;6.17;;;;;;;13.85;41.62;101105.41;30852903;28;96688;-61
2022/10/09 16:48:58;;;;;;;11.00;5.10;;;;;;;12.89;44.62;101100.63;30850731;28;98679;-60
2022/10/09 17:03:59;;;;;;;14.00;5.43;;;;;;;12.17;46.74;101117.88;30864132;28;96682;-60
2022/10/09 17:19:00;;;;;;;13.55;5.90;;;;;;;11.39;49.24;101115.94;30872040;28;96821;-60
2022/10/09 17:34:02;;;;;;;9.90;3.50;;;;;;;10.78;51.19;101119.13;30870226;28;96953;-61
2022/10/09 17:49:03;;;;;;;12.57;4.90;;;;;;;10.47;52.76;101116.75;30869420;28;97017;-61
2022/10/09 18:04:04;;;;;;;14.10;5.60;;;;;;;10.02;54.33;101122.78;30868021;28;97441;-61
2022/10/09 18:19:11;;;;;;;17.42;7.72;;;;;;;9.63;55.90;101120.16;31293089;28;96681;-60
2022/10/09 18:34:12;;;;;;;32.92;12.10;;;;;;;9.40;57.21;101124.94;31323912;28;96541;-59
2022/10/09 18:49:16;;;;;;;21.13;9.95;;;;;;;9.18;58.47;101123.38;30864579;28;96783;-60
2022/10/09 19:04:17;;;;;;;19.10;9.70;;;;;;;8.90;59.29;101126.69;30862128;28;96632;-60
2022/10/09 19:19:18;;;;;;;19.13;9.23;;;;;;;8.50;60.61;101124.03;30858449;28;96696;-60
2022/10/09 19:34:18;;;;;;;19.98;10.13;;;;;;;8.26;61.61;101125.16;30857783;28;96710;-60
2022/10/09 19:49:19;;;;;;;19.17;9.50;;;;;;;7.84;62.98;101133.16;30855942;28;96899;-60
2022/10/09 20:04:19;;;;;;;23.17;11.32;;;;;;;7.59;63.74;101124.59;30855926;28;96598;-60
2022/10/09 20:19:20;;;;;;;22.77;12.55;;;;;;;7.44;64.39;101132.03;30851875;28;96582;-60
2022/10/09 20:34:21;;;;;;;26.67;13.75;;;;;;;7.28;65.77;101116.53;31277489;28;96641;-60
2022/10/09 20:49:22;;;;;;;22.33;12.52;;;;;;;7.07;66.02;101117.31;31378400;28;20082;-61
2022/10/09 21:04:22;;;;;;;24.27;12.57;;;;;;;6.88;66.86;101111.84;31272973;28;96783;-60
2022/10/09 21:19:23;;;;;;;21.83;12.18;;;;;;;-147.20;100.00;63046.97;30998971;28;97252;-61
2022/10/09 21:34:23;;;;;;;17.42;9.25;;;;;;;-147.20;100.00;63046.97;31467144;28;20124;-62
2022/10/09 21:49:26;;;;;;;16.45;9.25;;;;;;;-147.20;100.00;63046.97;31435237;28;20124;-61
2022/10/09 22:04:26;;;;;;;20.33;9.27;;;;;;;-147.20;100.00;63046.97;31444243;28;20164;-61
2022/10/09 22:19:26;;;;;;;14.75;7.85;;;;;;;-147.20;100.00;63046.97;31442446;28;24841;-62
2022/10/09 22:34:27;;;;;;;13.93;6.93;;;;;;;-147.20;100.00;63046.97;31441523;28;20037;-61
2022/10/09 22:49:27;;;;;;;14.50;6.50;;;;;;;-147.20;100.00;63046.97;31438188;28;20052;-60
2022/10/09 23:04:28;;;;;;;13.43;5.78;;;;;;;-147.20;100.00;63046.97;31437345;28;21353;-60
2022/10/09 23:19:28;;;;;;;11.65;5.25;;;;;;;-147.20;100.00;63046.97;31436622;28;20036;-61
2022/10/09 23:34:29;;;;;;;7.70;4.75;;;;;;;-147.20;100.00;63046.97;31435061;28;22810;-61
2022/10/09 23:49:29;;;;;;;11.50;5.07;;;;;;;-147.20;100.00;63046.97;31433962;28;20853;-60
